createdAt,value
2018-04-19T00:04:56.525Z,28.50
2018-04-19T00:05:56.534Z,27.90
2018-04-19T00:07:50.023Z,28.00
2018-04-19T00:08:49.485Z,27.90
2018-04-19T00:10:42.461Z,27.80
2018-04-19T00:11:42.450Z,26.40
2018-04-19T00:13:35.431Z,27.10
2018-04-19T00:14:35.401Z,26.30
2018-04-19T00:16:28.386Z,26.00
2018-04-19T00:17:28.367Z,27.50
2018-04-19T00:19:21.318Z,26.50
2018-04-19T00:20:21.315Z,27.00
2018-04-19T00:22:14.813Z,27.40
2018-04-19T00:23:14.790Z,27.60
2018-04-19T00:25:07.739Z,29.00
2018-04-19T00:26:07.747Z,28.50
2018-04-19T00:28:00.727Z,27.80
2018-04-19T00:29:00.699Z,27.30
2018-04-19T00:30:53.715Z,26.70
2018-04-19T00:31:53.659Z,27.60
2018-04-19T00:33:46.616Z,24.60
2018-04-19T00:34:46.612Z,25.00
2018-04-19T00:36:39.608Z,25.40
2018-04-19T00:37:39.573Z,26.60
2018-04-19T00:39:32.533Z,27.10
2018-04-19T00:40:32.527Z,25.80
2018-04-19T00:42:25.545Z,25.80
2018-04-19T00:43:25.487Z,26.10
2018-04-19T00:45:18.437Z,27.30
2018-04-19T00:46:18.448Z,26.00
2018-04-19T00:48:11.455Z,26.80
2018-04-19T00:49:11.401Z,26.40
2018-04-19T00:51:04.385Z,26.00
2018-04-19T00:52:04.357Z,25.50
2018-04-19T00:53:57.324Z,25.80
2018-04-19T00:54:57.320Z,25.50
2018-04-19T00:56:50.304Z,22.90
2018-04-19T00:57:50.274Z,22.10
2018-04-19T00:59:43.233Z,22.60
2018-04-19T01:00:43.238Z,22.00
2018-04-19T01:02:36.221Z,22.10
2018-04-19T01:03:36.186Z,21.40
2018-04-19T01:05:29.144Z,21.90
2018-04-19T01:06:29.148Z,22.00
2018-04-19T01:08:22.155Z,21.60
2018-04-19T01:09:22.103Z,22.80
2018-04-19T01:11:15.091Z,22.10
2018-04-19T01:12:15.057Z,22.00
2018-04-19T01:14:08.839Z,20.40
2018-04-19T01:15:08.835Z,20.70
2018-04-19T01:17:01.841Z,20.60
2018-04-19T01:18:01.791Z,21.60
2018-04-19T01:19:01.801Z,20.10
2018-04-19T01:20:01.803Z,20.50
2018-04-19T01:21:01.811Z,19.50
2018-04-19T01:22:01.814Z,19.70
2018-04-19T01:23:01.818Z,20.60
2018-04-19T01:24:01.817Z,20.60
2018-04-19T01:25:01.835Z,19.20
2018-04-19T01:26:01.834Z,19.90
2018-04-19T01:27:01.839Z,19.50
2018-04-19T01:28:01.837Z,19.10
2018-04-19T01:29:01.843Z,19.00
2018-04-19T01:30:01.848Z,19.00
2018-04-19T01:31:01.855Z,19.00
2018-04-19T01:32:01.870Z,18.10
2018-04-19T01:33:01.866Z,17.80
2018-04-19T01:34:01.865Z,17.90
2018-04-19T01:35:01.871Z,19.00
2018-04-19T01:36:01.877Z,18.00
2018-04-19T01:37:01.889Z,18.50
2018-04-19T01:38:01.902Z,17.80
2018-04-19T01:39:01.891Z,18.30
2018-04-19T01:40:01.895Z,17.10
2018-04-19T01:41:01.907Z,17.50
2018-04-19T01:42:01.905Z,17.00
2018-04-19T01:43:01.906Z,17.50
2018-04-19T01:44:01.919Z,17.30
2018-04-19T01:45:01.919Z,17.40
2018-04-19T01:46:01.923Z,17.10
2018-04-19T01:47:01.927Z,17.50
2018-04-19T01:48:01.997Z,16.60
2018-04-19T01:49:01.941Z,17.50
2018-04-19T01:50:01.945Z,17.10
2018-04-19T01:51:01.954Z,16.00
2018-04-19T01:52:01.954Z,16.70
2018-04-19T01:53:01.949Z,16.70
2018-04-19T01:54:01.956Z,17.10
2018-04-19T01:55:01.966Z,16.40
2018-04-19T01:56:01.967Z,16.10
2018-04-19T01:57:01.976Z,16.30
2018-04-19T01:58:01.978Z,16.60
2018-04-19T01:59:01.984Z,15.90
2018-04-19T02:00:01.980Z,16.40
2018-04-19T02:01:01.995Z,16.40
2018-04-19T02:02:01.990Z,15.90
2018-04-19T02:03:02.001Z,16.10
2018-04-19T02:04:02.003Z,14.90
2018-04-19T02:05:02.004Z,15.70
2018-04-19T02:06:02.004Z,16.30
2018-04-19T02:07:02.009Z,15.30
2018-04-19T02:08:02.014Z,15.50
2018-04-19T02:09:02.031Z,14.90
2018-04-19T02:10:02.040Z,15.10
2018-04-19T02:11:02.031Z,15.30
2018-04-19T02:12:02.036Z,15.70
2018-04-19T02:13:02.040Z,15.40
2018-04-19T02:14:02.052Z,15.20
2018-04-19T02:15:02.055Z,15.50
2018-04-19T02:16:02.052Z,15.30
2018-04-19T02:17:02.057Z,15.00
2018-04-19T02:18:02.061Z,15.30
2018-04-19T02:19:02.078Z,15.00
2018-04-19T02:20:02.082Z,15.10
2018-04-19T02:21:02.082Z,15.30
2018-04-19T02:22:02.107Z,14.80
2018-04-19T02:23:02.083Z,15.60
2018-04-19T02:24:02.100Z,15.60
2018-04-19T02:25:02.089Z,15.50
2018-04-19T02:26:02.101Z,15.50
2018-04-19T02:27:02.101Z,14.60
2018-04-19T02:28:02.113Z,15.00
2018-04-19T02:29:02.119Z,14.90
2018-04-19T02:30:02.121Z,15.10
2018-04-19T02:31:02.136Z,15.10
2018-04-19T02:32:02.121Z,15.20
2018-04-19T02:33:02.132Z,14.50
2018-04-19T02:34:02.129Z,14.70
2018-04-19T02:35:02.142Z,13.90
2018-04-19T02:36:02.149Z,15.00
2018-04-19T02:37:02.142Z,14.80
2018-04-19T02:38:02.148Z,15.60
2018-04-19T02:39:02.156Z,14.00
2018-04-19T02:40:02.157Z,14.70
2018-04-19T02:41:02.164Z,14.90
2018-04-19T02:42:02.166Z,14.60
2018-04-19T02:43:02.173Z,15.20
2018-04-19T02:44:02.170Z,15.10
2018-04-19T02:45:02.181Z,14.80
2018-04-19T02:46:02.180Z,14.50
2018-04-19T02:47:02.191Z,14.20
2018-04-19T02:48:02.189Z,15.20
2018-04-19T02:49:02.197Z,14.40
2018-04-19T02:50:02.200Z,14.10
2018-04-19T02:51:02.203Z,14.50
2018-04-19T02:52:02.209Z,14.50
2018-04-19T02:53:02.223Z,14.60
2018-04-19T02:54:02.218Z,13.80
2018-04-19T02:55:02.223Z,14.90
2018-04-19T02:56:02.230Z,15.00
2018-04-19T02:57:02.266Z,14.70
2018-04-19T02:58:02.233Z,14.80
2018-04-19T02:59:02.242Z,14.60
2018-04-19T03:00:02.259Z,15.00
2018-04-19T03:01:02.244Z,14.70
2018-04-19T03:02:02.250Z,14.30
2018-04-19T03:03:02.266Z,14.70
2018-04-19T03:04:02.272Z,14.70
2018-04-19T03:05:02.296Z,14.70
2018-04-19T03:06:02.272Z,14.40
2018-04-19T03:07:02.283Z,14.40
2018-04-19T03:08:02.284Z,15.40
2018-04-19T03:09:02.273Z,14.40
2018-04-19T03:10:02.277Z,14.80
2018-04-19T03:11:02.288Z,14.90
2018-04-19T03:12:02.287Z,13.90
2018-04-19T03:13:02.298Z,15.10
2018-04-19T03:14:02.297Z,14.80
2018-04-19T03:15:02.305Z,14.30
2018-04-19T03:16:02.302Z,15.10
2018-04-19T03:17:02.317Z,14.40
2018-04-19T03:18:02.314Z,14.10
2018-04-19T03:19:02.318Z,16.10
2018-04-19T03:20:02.321Z,15.60
2018-04-19T03:21:02.330Z,15.30
2018-04-19T03:22:02.327Z,15.90
2018-04-19T03:23:02.339Z,16.00
2018-04-19T03:24:02.340Z,15.90
2018-04-19T03:25:02.356Z,15.80
2018-04-19T03:26:02.347Z,15.40
2018-04-19T03:27:02.352Z,15.60
2018-04-19T03:28:02.365Z,16.10
2018-04-19T03:29:02.421Z,15.80
2018-04-19T03:30:02.361Z,15.30
2018-04-19T03:31:02.372Z,15.90
2018-04-19T03:32:02.379Z,16.00
2018-04-19T03:33:02.378Z,16.00
2018-04-19T03:34:02.382Z,15.90
2018-04-19T03:35:02.401Z,16.70
2018-04-19T03:36:02.402Z,16.30
2018-04-19T03:37:02.407Z,15.80
2018-04-19T03:38:02.408Z,16.20
2018-04-19T03:39:02.428Z,16.30
2018-04-19T03:40:02.422Z,16.00
2018-04-19T03:41:02.425Z,15.70
2018-04-19T03:42:02.430Z,16.50
2018-04-19T03:43:02.444Z,16.60
2018-04-19T03:44:02.414Z,15.80
2018-04-19T03:45:02.465Z,16.90
2018-04-19T03:46:02.462Z,15.90
2018-04-19T03:47:02.474Z,16.30
2018-04-19T03:48:02.449Z,16.00
2018-04-19T03:49:02.447Z,17.20
2018-04-19T03:50:02.442Z,16.10
2018-04-19T03:51:02.446Z,17.00
2018-04-19T03:52:02.502Z,17.40
2018-04-19T03:53:02.457Z,17.20
2018-04-19T03:54:02.455Z,17.10
2018-04-19T03:55:02.465Z,16.70
2018-04-19T03:56:02.462Z,17.50
2018-04-19T03:57:02.474Z,16.60
2018-04-19T03:58:02.477Z,17.10
2018-04-19T03:59:02.486Z,17.60
2018-04-19T04:00:02.491Z,16.80
2018-04-19T04:01:02.531Z,16.90
2018-04-19T04:02:02.500Z,17.40
2018-04-19T04:03:02.505Z,17.10
2018-04-19T04:04:02.509Z,17.00
2018-04-19T04:05:02.523Z,16.80
2018-04-19T04:06:02.516Z,16.70
2018-04-19T04:07:02.520Z,17.50
2018-04-19T04:08:02.520Z,17.80
2018-04-19T04:09:02.541Z,17.10
2018-04-19T04:10:02.542Z,16.90
2018-04-19T04:11:02.545Z,17.70
2018-04-19T04:12:02.574Z,17.70
2018-04-19T04:13:02.552Z,17.90
2018-04-19T04:14:02.566Z,19.30
2018-04-19T04:15:02.572Z,17.80
2018-04-19T04:16:02.540Z,17.30
2018-04-19T04:17:02.572Z,17.70
2018-04-19T04:18:02.559Z,18.30
2018-04-19T04:19:02.585Z,18.20
2018-04-19T04:20:02.558Z,18.10
2018-04-19T04:21:02.595Z,18.20
2018-04-19T04:22:02.569Z,17.90
2018-04-19T04:23:02.566Z,18.80
2018-04-19T04:24:02.578Z,18.30
2018-04-19T04:25:02.579Z,18.20
2018-04-19T04:26:02.588Z,18.80
2018-04-19T04:27:02.586Z,18.80
2018-04-19T04:28:02.588Z,18.00
2018-04-19T04:29:02.603Z,18.90
2018-04-19T04:30:02.617Z,19.00
2018-04-19T04:31:02.614Z,18.00
2018-04-19T04:32:02.609Z,19.20
2018-04-19T04:33:02.609Z,19.10
2018-04-19T04:34:02.615Z,18.40
2018-04-19T04:35:02.616Z,18.30
2018-04-19T04:36:02.623Z,19.10
2018-04-19T04:37:04.736Z,18.90
2018-04-19T04:38:05.988Z,18.70
2018-04-19T04:39:02.634Z,18.50
2018-04-19T04:40:02.640Z,18.10
2018-04-19T04:41:02.636Z,19.30
2018-04-19T04:42:02.640Z,18.70
2018-04-19T04:43:02.650Z,19.10
2018-04-19T04:44:02.731Z,18.20
2018-04-19T04:45:02.683Z,18.80
2018-04-19T04:46:02.656Z,20.50
2018-04-19T04:47:02.668Z,18.60
2018-04-19T04:48:02.658Z,18.80
2018-04-19T04:49:02.673Z,19.30
2018-04-19T04:50:02.673Z,18.70
2018-04-19T04:51:02.674Z,19.10
2018-04-19T04:52:02.681Z,18.10
2018-04-19T04:53:02.679Z,18.30
2018-04-19T04:54:02.711Z,18.00
2018-04-19T04:55:02.690Z,18.70
2018-04-19T04:56:02.712Z,18.70
2018-04-19T04:57:04.335Z,17.80
2018-04-19T04:58:02.696Z,18.20
2018-04-19T04:59:02.710Z,17.70
2018-04-19T05:00:02.706Z,18.50
2018-04-19T05:01:02.721Z,17.80
2018-04-19T05:02:03.332Z,18.10
2018-04-19T05:03:04.893Z,18.60
2018-04-19T05:04:07.016Z,17.70
2018-04-19T05:05:03.615Z,18.30
2018-04-19T05:06:02.736Z,16.90
2018-04-19T05:07:06.336Z,17.20
2018-04-19T05:08:06.020Z,17.20
2018-04-19T05:09:02.742Z,16.30
2018-04-19T05:10:02.754Z,16.20
2018-04-19T05:11:02.778Z,16.60
2018-04-19T05:12:02.752Z,15.90
2018-04-19T05:13:02.767Z,16.40
2018-04-19T05:14:02.767Z,16.70
2018-04-19T05:15:57.209Z,16.80
2018-04-19T05:16:57.170Z,15.90
2018-04-19T05:18:50.131Z,16.60
2018-04-19T05:19:50.130Z,15.80
2018-04-19T05:21:46.085Z,15.20
2018-04-19T05:22:46.052Z,15.40
2018-04-19T05:23:46.057Z,15.10
2018-04-19T05:24:46.075Z,15.30
2018-04-19T05:25:46.059Z,15.60
2018-04-19T05:26:46.070Z,14.90
2018-04-19T05:27:46.080Z,15.40
2018-04-19T05:28:46.084Z,15.20
2018-04-19T05:29:46.084Z,14.30
2018-04-19T05:30:46.080Z,14.70
2018-04-19T05:31:47.118Z,14.40
2018-04-19T05:32:46.101Z,14.80
2018-04-19T05:33:46.122Z,14.90
2018-04-19T05:34:46.115Z,14.90
2018-04-19T05:35:46.101Z,14.90
2018-04-19T05:36:46.111Z,14.90
2018-04-19T05:37:46.107Z,14.40
2018-04-19T05:38:46.118Z,14.70
2018-04-19T05:39:46.117Z,14.30
2018-04-19T05:40:46.119Z,15.00
2018-04-19T05:41:46.135Z,14.30
2018-04-19T05:42:46.132Z,14.90
2018-04-19T05:43:46.135Z,14.30
2018-04-19T05:44:46.279Z,14.10
2018-04-19T05:45:46.148Z,14.90
2018-04-19T05:46:46.145Z,15.40
2018-04-19T05:47:46.154Z,14.00
2018-04-19T05:48:46.158Z,14.00
2018-04-19T05:49:46.155Z,14.70
2018-04-19T05:50:46.174Z,13.90
2018-04-19T05:51:46.200Z,14.00
2018-04-19T05:52:46.228Z,14.60
2018-04-19T05:53:46.180Z,14.20
2018-04-19T05:54:46.194Z,14.20
2018-04-19T05:55:46.192Z,13.50
2018-04-19T05:56:46.189Z,13.80
2018-04-19T05:57:46.194Z,14.20
2018-04-19T05:58:46.195Z,13.90
2018-04-19T05:59:46.207Z,14.20
2018-04-19T06:00:46.213Z,14.20
2018-04-19T06:01:47.100Z,13.80
2018-04-19T06:02:46.221Z,14.40
2018-04-19T06:03:46.221Z,13.50
2018-04-19T06:04:46.226Z,14.00
2018-04-19T06:05:46.230Z,13.60
2018-04-19T06:06:46.238Z,12.80
2018-04-19T06:07:46.244Z,13.40
2018-04-19T06:08:46.253Z,12.40
2018-04-19T06:09:46.260Z,12.60
2018-04-19T06:10:46.263Z,12.90
2018-04-19T06:11:46.262Z,12.60
2018-04-19T06:12:46.272Z,12.50
2018-04-19T06:13:46.281Z,12.20
2018-04-19T06:14:46.291Z,11.70
2018-04-19T06:15:46.295Z,12.00
2018-04-19T06:16:46.304Z,11.70
2018-04-19T06:17:46.354Z,11.60
2018-04-19T06:18:46.331Z,11.60
2018-04-19T06:19:47.269Z,11.50
2018-04-19T06:20:46.346Z,10.60
2018-04-19T06:21:46.378Z,10.90
2018-04-19T06:22:46.376Z,11.10
2018-04-19T06:23:46.382Z,11.20
2018-04-19T06:24:46.390Z,11.00
2018-04-19T06:25:46.414Z,11.10
2018-04-19T06:26:46.418Z,11.90
2018-04-19T06:27:46.436Z,10.60
2018-04-19T06:28:46.445Z,11.00
2018-04-19T06:29:46.452Z,10.40
2018-04-19T06:30:46.479Z,10.60
2018-04-19T06:31:46.479Z,10.60
2018-04-19T06:32:46.492Z,11.00
2018-04-19T06:33:47.410Z,10.80
2018-04-19T06:34:46.874Z,10.80
2018-04-19T06:36:39.562Z,10.20
2018-04-19T06:37:39.479Z,10.70
2018-04-19T06:39:32.967Z,10.20
2018-04-19T06:40:32.455Z,10.10
2018-04-19T06:42:25.405Z,10.10
2018-04-19T06:43:25.399Z,9.90
2018-04-19T06:45:18.356Z,10.30
2018-04-19T06:46:18.363Z,10.00
2018-04-19T06:48:11.325Z,9.90
2018-04-19T06:49:11.314Z,10.20
2018-04-19T06:51:04.286Z,9.80
2018-04-19T06:52:04.270Z,9.80
2018-04-19T06:53:57.338Z,9.70
2018-04-19T06:54:57.333Z,9.60
2018-04-19T06:56:50.303Z,10.60
2018-04-19T06:57:50.308Z,9.40
2018-04-19T06:59:43.228Z,10.30
2018-04-19T07:00:43.238Z,10.40
2018-04-19T07:02:36.217Z,9.20
2018-04-19T07:03:36.204Z,9.20
2018-04-19T07:05:29.141Z,9.20
2018-04-19T07:06:29.157Z,9.40
2018-04-19T07:08:22.141Z,8.80
2018-04-19T07:09:22.138Z,9.50
2018-04-19T07:11:15.089Z,9.00
2018-04-19T07:12:15.075Z,8.90
2018-04-19T07:14:08.012Z,8.90
2018-04-19T07:15:08.036Z,8.80
2018-04-19T07:17:01.076Z,8.90
2018-04-19T07:18:00.994Z,9.40
2018-04-19T07:19:53.926Z,8.10
2018-04-19T07:20:54.055Z,8.90
2018-04-19T07:22:46.911Z,9.00
2018-04-19T07:23:46.899Z,9.00
2018-04-19T07:25:39.837Z,8.10
2018-04-19T07:26:39.861Z,8.60
2018-04-19T07:28:32.824Z,8.70
2018-04-19T07:29:32.821Z,8.40
2018-04-19T07:30:32.836Z,8.70
2018-04-19T07:31:32.856Z,8.80
2018-04-19T07:32:32.883Z,8.80
2018-04-19T07:33:32.902Z,9.40
2018-04-19T07:34:32.930Z,8.40
2018-04-19T07:35:32.950Z,8.60
2018-04-19T07:36:32.969Z,8.80
2018-04-19T07:37:32.992Z,8.40
2018-04-19T07:38:33.022Z,8.10
2018-04-19T07:39:33.043Z,8.10
2018-04-19T07:40:33.058Z,7.90
2018-04-19T07:41:33.086Z,7.60
2018-04-19T07:42:33.108Z,8.20
2018-04-19T07:43:33.128Z,8.60
2018-04-19T07:44:33.149Z,8.30
2018-04-19T07:45:33.176Z,8.90
2018-04-19T07:46:33.202Z,8.60
2018-04-19T07:47:33.225Z,10.40
2018-04-19T07:48:33.242Z,8.70
2018-04-19T07:49:33.266Z,9.80
2018-04-19T07:50:33.289Z,8.10
2018-04-19T07:51:33.356Z,9.40
2018-04-19T07:52:33.332Z,7.80
2018-04-19T07:53:33.354Z,8.10
2018-04-19T07:54:33.384Z,9.90
2018-04-19T07:55:33.404Z,7.80
2018-04-19T07:56:33.516Z,7.60
2018-04-19T07:57:33.512Z,8.40
2018-04-19T07:58:33.470Z,9.80
2018-04-19T07:59:33.505Z,7.80
2018-04-19T08:00:33.534Z,7.70
2018-04-19T08:01:33.533Z,7.70
2018-04-19T08:02:33.559Z,7.90
2018-04-19T08:03:33.583Z,8.40
2018-04-19T08:04:33.603Z,10.50
2018-04-19T08:05:33.624Z,7.70
2018-04-19T08:06:33.671Z,11.80
2018-04-19T08:07:33.674Z,9.20
2018-04-19T08:08:33.703Z,11.20
2018-04-19T08:09:33.718Z,8.40
2018-04-19T08:10:33.744Z,8.20
2018-04-19T08:11:33.773Z,7.60
2018-04-19T08:12:33.823Z,8.40
2018-04-19T08:13:33.817Z,8.50
2018-04-19T08:14:33.835Z,7.60
2018-04-19T08:15:33.865Z,7.70
2018-04-19T08:16:33.887Z,7.50
2018-04-19T08:17:33.914Z,8.70
2018-04-19T08:18:33.937Z,7.40
2018-04-19T08:19:33.966Z,7.50
2018-04-19T08:20:34.005Z,7.60
2018-04-19T08:21:34.000Z,7.00
2018-04-19T08:22:34.027Z,8.10
2018-04-19T08:23:34.050Z,7.80
2018-04-19T08:24:34.085Z,7.00
2018-04-19T08:25:34.099Z,7.40
2018-04-19T08:26:34.130Z,7.20
2018-04-19T08:27:34.142Z,7.40
2018-04-19T08:28:34.175Z,7.50
2018-04-19T08:29:34.199Z,6.40
2018-04-19T08:30:34.228Z,7.40
2018-04-19T08:31:34.252Z,6.90
2018-04-19T08:32:34.264Z,6.70
2018-04-19T08:33:34.290Z,7.40
2018-04-19T08:34:34.322Z,7.60
2018-04-19T08:35:34.337Z,6.50
2018-04-19T08:36:34.373Z,7.00
2018-04-19T08:37:34.411Z,6.80
2018-04-19T08:38:34.420Z,6.70
2018-04-19T08:39:34.437Z,7.10
2018-04-19T08:40:34.468Z,9.10
2018-04-19T08:41:34.486Z,7.60
2018-04-19T08:42:34.518Z,7.20
2018-04-19T08:43:34.537Z,7.00
2018-04-19T08:44:34.618Z,7.10
2018-04-19T08:45:34.719Z,7.00
2018-04-19T08:46:34.621Z,7.30
2018-04-19T08:47:34.644Z,6.90
2018-04-19T08:48:34.660Z,7.20
2018-04-19T08:49:34.682Z,7.40
2018-04-19T08:50:34.710Z,7.50
2018-04-19T08:51:34.736Z,7.00
2018-04-19T08:52:34.756Z,7.20
2018-04-19T08:53:34.781Z,7.00
2018-04-19T08:54:34.809Z,6.50
2018-04-19T08:55:34.839Z,6.50
2018-04-19T08:56:34.854Z,6.50
2018-04-19T08:57:34.875Z,6.20
2018-04-19T08:58:34.909Z,6.90
2018-04-19T08:59:34.928Z,7.10
2018-04-19T09:00:34.963Z,7.20
2018-04-19T09:01:34.985Z,7.40
2018-04-19T09:02:34.998Z,7.80
2018-04-19T09:03:35.025Z,8.10
2018-04-19T09:04:35.049Z,6.70
2018-04-19T09:05:35.094Z,6.70
2018-04-19T09:06:35.106Z,6.70
2018-04-19T09:07:35.130Z,6.90
2018-04-19T09:08:35.148Z,6.80
2018-04-19T09:09:35.176Z,6.90
2018-04-19T09:10:35.198Z,6.50
2018-04-19T09:11:35.224Z,6.90
2018-04-19T09:12:35.251Z,6.40
2018-04-19T09:13:35.277Z,6.60
2018-04-19T09:14:35.296Z,6.00
2018-04-19T09:15:35.324Z,6.40
2018-04-19T09:16:35.344Z,6.30
2018-04-19T09:17:35.367Z,6.50
2018-04-19T09:18:35.395Z,6.20
2018-04-19T09:19:35.410Z,7.00
2018-04-19T09:20:35.439Z,6.50
2018-04-19T09:21:35.466Z,6.50
2018-04-19T09:22:35.481Z,6.70
2018-04-19T09:23:35.517Z,6.60
2018-04-19T09:24:35.535Z,6.90
2018-04-19T09:25:35.554Z,6.20
2018-04-19T09:26:35.579Z,6.10
2018-04-19T09:27:35.611Z,6.00
2018-04-19T09:28:35.626Z,6.20
2018-04-19T09:29:35.649Z,6.20
2018-04-19T09:30:35.671Z,6.10
2018-04-19T09:31:35.695Z,6.20
2018-04-19T09:32:35.717Z,5.70
2018-04-19T09:33:35.740Z,6.30
2018-04-19T09:34:35.766Z,6.10
2018-04-19T09:35:35.787Z,5.60
2018-04-19T09:36:35.815Z,5.70
2018-04-19T09:37:35.830Z,5.60
2018-04-19T09:38:35.860Z,5.60
2018-04-19T09:39:35.926Z,5.90
2018-04-19T09:40:35.904Z,6.30
2018-04-19T09:41:35.921Z,5.30
2018-04-19T09:42:35.948Z,5.40
2018-04-19T09:43:35.975Z,5.50
2018-04-19T09:44:35.993Z,5.30
2018-04-19T09:45:36.019Z,5.00
2018-04-19T09:46:36.086Z,5.30
2018-04-19T09:47:36.059Z,5.30
2018-04-19T09:48:36.087Z,4.90
2018-04-19T09:49:36.117Z,4.50
2018-04-19T09:50:36.133Z,4.60
2018-04-19T09:51:36.150Z,4.50
2018-04-19T09:52:36.180Z,4.10
2018-04-19T09:53:36.205Z,4.70
2018-04-19T09:54:36.222Z,4.30
2018-04-19T09:55:36.270Z,4.00
2018-04-19T09:56:36.268Z,3.90
2018-04-19T09:57:36.290Z,4.20
2018-04-19T09:58:36.338Z,4.00
2018-04-19T09:59:36.340Z,3.70
2018-04-19T10:00:36.356Z,3.80
2018-04-19T10:01:36.385Z,3.40
2018-04-19T10:02:36.415Z,3.70
2018-04-19T10:03:36.438Z,4.40
2018-04-19T10:04:36.457Z,4.00
2018-04-19T10:05:36.480Z,3.90
2018-04-19T10:06:36.498Z,3.40
2018-04-19T10:07:36.526Z,4.30
2018-04-19T10:08:36.547Z,3.60
2018-04-19T10:09:36.564Z,4.00
2018-04-19T10:10:36.593Z,4.00
2018-04-19T10:11:36.608Z,3.80
2018-04-19T10:12:36.640Z,3.50
2018-04-19T10:13:36.664Z,3.60
2018-04-19T10:14:36.686Z,3.40
2018-04-19T10:15:36.703Z,4.10
2018-04-19T10:16:36.745Z,4.20
2018-04-19T10:17:36.748Z,4.70
2018-04-19T10:18:36.773Z,4.40
2018-04-19T10:19:36.798Z,3.90
2018-04-19T10:20:36.819Z,5.20
2018-04-19T10:21:36.849Z,5.00
2018-04-19T10:22:36.868Z,4.70
2018-04-19T10:23:36.898Z,4.40
2018-04-19T10:24:36.914Z,4.10
2018-04-19T10:25:36.929Z,4.10
2018-04-19T10:26:36.955Z,3.20
2018-04-19T10:27:36.994Z,2.90
2018-04-19T10:28:37.017Z,2.60
2018-04-19T10:29:37.027Z,2.60
2018-04-19T10:30:37.059Z,2.50
2018-04-19T10:31:37.064Z,3.30
2018-04-19T10:32:37.090Z,2.90
2018-04-19T10:33:37.156Z,3.40
2018-04-19T10:34:37.150Z,3.00
2018-04-19T10:35:37.171Z,3.30
2018-04-19T10:36:37.182Z,3.30
2018-04-19T10:37:37.210Z,2.80
2018-04-19T10:38:37.219Z,2.90
2018-04-19T10:39:37.239Z,2.80
2018-04-19T10:40:37.305Z,3.00
2018-04-19T10:41:37.325Z,2.60
2018-04-19T10:42:37.430Z,3.10
2018-04-19T10:43:37.340Z,2.90
2018-04-19T10:44:37.363Z,3.10
2018-04-19T10:45:37.376Z,2.40
2018-04-19T10:46:37.397Z,2.50
2018-04-19T10:47:37.450Z,2.30
2018-04-19T10:48:37.458Z,2.50
2018-04-19T10:49:37.474Z,2.40
2018-04-19T10:50:37.495Z,2.70
2018-04-19T10:51:37.517Z,2.50
2018-04-19T10:52:37.525Z,2.30
2018-04-19T10:53:37.554Z,3.40
2018-04-19T10:54:37.606Z,2.60
2018-04-19T10:55:37.614Z,2.50
2018-04-19T10:56:37.627Z,2.50
2018-04-19T10:57:37.648Z,2.60
2018-04-19T10:58:37.676Z,2.60
2018-04-19T10:59:37.681Z,2.40
2018-04-19T11:00:37.705Z,2.70
2018-04-19T11:01:37.757Z,2.70
2018-04-19T11:02:37.761Z,2.80
2018-04-19T11:03:37.773Z,2.60
2018-04-19T11:04:37.796Z,2.50
2018-04-19T11:05:37.872Z,2.40
2018-04-19T11:06:37.829Z,2.60
2018-04-19T11:07:37.851Z,2.50
2018-04-19T11:08:37.940Z,2.70
2018-04-19T11:09:37.913Z,2.90
2018-04-19T11:10:37.922Z,4.30
2018-04-19T11:11:38.099Z,3.90
2018-04-19T11:12:37.963Z,3.70
2018-04-19T11:13:37.982Z,3.60
2018-04-19T11:14:38.000Z,4.00
2018-04-19T11:15:38.061Z,4.10
2018-04-19T11:16:38.060Z,4.20
2018-04-19T11:17:38.065Z,5.10
2018-04-19T11:18:38.100Z,5.00
2018-04-19T11:19:38.116Z,5.40
2018-04-19T11:20:38.124Z,5.50
2018-04-19T11:21:38.145Z,5.30
2018-04-19T11:22:38.203Z,4.90
2018-04-19T11:23:38.210Z,5.10
2018-04-19T11:24:38.224Z,5.30
2018-04-19T11:25:38.244Z,5.60
2018-04-19T11:26:38.255Z,5.70
2018-04-19T11:27:38.273Z,6.30
2018-04-19T11:28:38.296Z,6.20
2018-04-19T11:29:38.312Z,5.80
2018-04-19T11:30:38.335Z,5.90
2018-04-19T11:31:38.365Z,5.40
2018-04-19T11:32:38.387Z,5.30
2018-04-19T11:33:38.409Z,5.20
2018-04-19T11:34:38.430Z,5.40
2018-04-19T11:35:38.442Z,6.10
2018-04-19T11:36:38.490Z,5.50
2018-04-19T11:37:38.467Z,5.30
2018-04-19T11:38:38.491Z,5.40
2018-04-19T11:39:38.629Z,5.50
2018-04-19T11:40:38.530Z,5.10
2018-04-19T11:41:38.544Z,5.40
2018-04-19T11:42:38.567Z,5.30
2018-04-19T11:43:38.585Z,5.40
2018-04-19T11:44:38.600Z,5.30
2018-04-19T11:45:38.617Z,4.70
2018-04-19T11:46:38.631Z,5.60
2018-04-19T11:47:38.657Z,5.20
2018-04-19T11:48:38.669Z,5.40
2018-04-19T11:49:38.692Z,5.50
2018-04-19T11:50:38.721Z,4.90
2018-04-19T11:51:38.726Z,5.00
2018-04-19T11:52:38.734Z,5.30
2018-04-19T11:53:38.755Z,5.60
2018-04-19T11:54:38.784Z,4.90
2018-04-19T11:55:38.794Z,5.50
2018-04-19T11:56:38.807Z,5.60
2018-04-19T11:57:38.880Z,4.90
2018-04-19T11:58:38.841Z,5.10
2018-04-19T11:59:38.883Z,5.40
2018-04-19T12:00:38.877Z,5.10
2018-04-19T12:01:38.916Z,5.00
2018-04-19T12:02:38.946Z,5.00
2018-04-19T12:03:38.956Z,4.90
2018-04-19T12:04:38.946Z,4.90
2018-04-19T12:05:38.956Z,4.70
2018-04-19T12:06:38.988Z,4.50
2018-04-19T12:07:38.997Z,4.60
2018-04-19T12:08:39.041Z,5.00
2018-04-19T12:09:39.018Z,4.50
2018-04-19T12:10:39.044Z,4.70
2018-04-19T12:11:39.064Z,4.70
2018-04-19T12:12:39.070Z,5.00
2018-04-19T12:13:39.279Z,4.20
2018-04-19T12:14:39.101Z,4.30
2018-04-19T12:15:39.118Z,5.00
2018-04-19T12:16:39.138Z,4.50
2018-04-19T12:17:39.139Z,3.80
2018-04-19T12:18:39.149Z,3.90
2018-04-19T12:19:39.175Z,3.60
2018-04-19T12:20:39.179Z,3.50
2018-04-19T12:21:39.199Z,3.80
2018-04-19T12:22:39.215Z,4.00
2018-04-19T12:23:39.237Z,4.10
2018-04-19T12:24:39.238Z,3.40
2018-04-19T12:25:39.348Z,3.40
2018-04-19T12:26:39.277Z,3.20
2018-04-19T12:27:39.331Z,3.30
2018-04-19T12:28:39.298Z,3.40
2018-04-19T12:29:39.378Z,3.70
2018-04-19T12:30:39.334Z,3.70
2018-04-19T12:31:39.344Z,3.60
2018-04-19T12:32:39.357Z,3.60
2018-04-19T12:33:39.463Z,3.20
2018-04-19T12:34:39.380Z,3.80
2018-04-19T12:35:39.398Z,3.80
2018-04-19T12:36:39.411Z,3.90
2018-04-19T12:37:39.510Z,3.60
2018-04-19T12:38:39.443Z,3.40
2018-04-19T12:39:39.453Z,4.20
2018-04-19T12:40:39.468Z,4.20
2018-04-19T12:41:39.480Z,4.30
2018-04-19T12:42:39.495Z,4.00
2018-04-19T12:43:39.508Z,4.80
2018-04-19T12:44:39.520Z,4.40
2018-04-19T12:45:39.537Z,4.20
2018-04-19T12:46:39.546Z,4.10
2018-04-19T12:47:39.557Z,4.10
2018-04-19T12:48:39.579Z,4.30
2018-04-19T12:49:39.584Z,4.70
2018-04-19T12:50:39.599Z,4.10
2018-04-19T12:51:39.617Z,4.20
2018-04-19T12:52:39.628Z,4.30
2018-04-19T12:53:39.646Z,4.10
2018-04-19T12:54:39.653Z,4.40
2018-04-19T12:55:39.662Z,5.10
2018-04-19T12:56:39.686Z,4.90
2018-04-19T12:57:39.689Z,5.00
2018-04-19T12:58:39.712Z,5.00
2018-04-19T12:59:39.722Z,4.90
2018-04-19T13:00:39.734Z,5.90
2018-04-19T13:01:39.769Z,5.20
2018-04-19T13:02:39.751Z,5.40
2018-04-19T13:03:39.765Z,4.70
2018-04-19T13:04:39.784Z,5.10
2018-04-19T13:05:39.798Z,4.70
2018-04-19T13:06:39.810Z,5.00
2018-04-19T13:07:39.824Z,6.10
2018-04-19T13:08:39.900Z,6.00
2018-04-19T13:09:39.841Z,6.30
2018-04-19T13:10:39.864Z,5.40
2018-04-19T13:11:39.869Z,5.90
2018-04-19T13:12:39.900Z,5.50
2018-04-19T13:13:39.901Z,5.90
2018-04-19T13:14:39.908Z,6.50
2018-04-19T13:15:39.938Z,5.90
2018-04-19T13:16:39.936Z,6.70
2018-04-19T13:17:39.985Z,5.70
2018-04-19T13:18:39.968Z,5.50
2018-04-19T13:19:39.976Z,5.60
2018-04-19T13:20:40.105Z,5.60
2018-04-19T13:21:40.029Z,6.00
2018-04-19T13:22:40.057Z,5.70
2018-04-19T13:23:40.024Z,5.70
2018-04-19T13:24:40.043Z,5.80
2018-04-19T13:25:40.190Z,5.60
2018-04-19T13:26:40.158Z,5.20
2018-04-19T13:27:40.201Z,5.70
2018-04-19T13:28:40.249Z,6.00
2018-04-19T13:29:40.196Z,5.70
2018-04-19T13:30:40.253Z,5.60
2018-04-19T13:31:40.226Z,4.70
2018-04-19T13:32:40.250Z,4.60
2018-04-19T13:33:40.268Z,4.70
2018-04-19T13:34:40.250Z,4.80
2018-04-19T13:35:40.318Z,4.60
2018-04-19T13:36:40.295Z,4.20
2018-04-19T13:37:40.296Z,4.20
2018-04-19T13:38:40.315Z,4.30
2018-04-19T13:39:40.328Z,3.90
2018-04-19T13:40:40.341Z,4.00
2018-04-19T13:41:40.536Z,4.40
2018-04-19T13:42:40.311Z,4.20
2018-04-19T13:43:40.288Z,4.10
2018-04-19T13:44:40.316Z,4.10
2018-04-19T13:45:40.297Z,4.10
2018-04-19T13:46:40.310Z,3.80
2018-04-19T13:47:40.328Z,3.90
2018-04-19T13:48:40.351Z,4.20
2018-04-19T13:49:40.366Z,3.60
2018-04-19T13:50:40.364Z,3.60
2018-04-19T13:51:40.372Z,3.70